sensor_id;sensor_type;location;lat;lon;timestamp;P1;durP1;ratioP1;P2;durP2;ratioP2
73779;SDS011;62093;37.614;15.072;2023-02-11T00:01:28;7.07;;;2.73;;
73779;SDS011;62093;37.614;15.072;2023-02-11T00:03:59;7.72;;;3.67;;
73779;SDS011;62093;37.614;15.072;2023-02-11T00:06:29;5.82;;;2.92;;
73779;SDS011;62093;37.614;15.072;2023-02-11T00:09:02;6.50;;;3.33;;
73779;SDS011;62093;37.614;15.072;2023-02-11T00:11:33;6.10;;;3.38;;
73779;SDS011;62093;37.614;15.072;2023-02-11T00:14:03;5.63;;;2.90;;
73779;SDS011;62093;37.614;15.072;2023-02-11T00:16:35;6.40;;;3.30;;
73779;SDS011;62093;37.614;15.072;2023-02-11T00:19:02;6.50;;;3.58;;
73779;SDS011;62093;37.614;15.072;2023-02-11T00:21:31;6.75;;;3.20;;
73779;SDS011;62093;37.614;15.072;2023-02-11T00:23:58;7.38;;;3.20;;
73779;SDS011;62093;37.614;15.072;2023-02-11T00:26:31;6.33;;;3.27;;
73779;SDS011;62093;37.614;15.072;2023-02-11T00:29:02;7.13;;;3.45;;
73779;SDS011;62093;37.614;15.072;2023-02-11T00:31:38;6.10;;;3.42;;
73779;SDS011;62093;37.614;15.072;2023-02-11T00:34:05;5.57;;;3.00;;
73779;SDS011;62093;37.614;15.072;2023-02-11T00:36:32;6.97;;;3.50;;
73779;SDS011;62093;37.614;15.072;2023-02-11T00:39:07;6.60;;;3.10;;
73779;SDS011;62093;37.614;15.072;2023-02-11T00:41:44;6.53;;;3.10;;
73779;SDS011;62093;37.614;15.072;2023-02-11T00:44:11;6.65;;;3.58;;
73779;SDS011;62093;37.614;15.072;2023-02-11T00:46:42;6.35;;;3.20;;
73779;SDS011;62093;37.614;15.072;2023-02-11T00:49:11;6.82;;;3.22;;
73779;SDS011;62093;37.614;15.072;2023-02-11T00:51:40;7.80;;;3.10;;
73779;SDS011;62093;37.614;15.072;2023-02-11T00:54:09;6.50;;;3.40;;
73779;SDS011;62093;37.614;15.072;2023-02-11T00:56:37;7.03;;;3.40;;
73779;SDS011;62093;37.614;15.072;2023-02-11T00:59:04;7.13;;;3.40;;
73779;SDS011;62093;37.614;15.072;2023-02-11T01:01:30;6.53;;;3.67;;
73779;SDS011;62093;37.614;15.072;2023-02-11T01:04:03;6.57;;;3.35;;
73779;SDS011;62093;37.614;15.072;2023-02-11T01:06:29;6.20;;;3.53;;
73779;SDS011;62093;37.614;15.072;2023-02-11T01:08:57;5.85;;;3.17;;
73779;SDS011;62093;37.614;15.072;2023-02-11T01:11:29;7.03;;;3.97;;
73779;SDS011;62093;37.614;15.072;2023-02-11T01:14:03;7.17;;;3.70;;
73779;SDS011;62093;37.614;15.072;2023-02-11T01:16:30;7.22;;;3.20;;
73779;SDS011;62093;37.614;15.072;2023-02-11T01:18:56;6.20;;;3.53;;
73779;SDS011;62093;37.614;15.072;2023-02-11T01:21:24;5.95;;;3.20;;
73779;SDS011;62093;37.614;15.072;2023-02-11T01:23:56;6.40;;;3.47;;
73779;SDS011;62093;37.614;15.072;2023-02-11T01:26:25;7.00;;;3.10;;
73779;SDS011;62093;37.614;15.072;2023-02-11T01:28:52;6.40;;;3.63;;
73779;SDS011;62093;37.614;15.072;2023-02-11T01:31:18;6.95;;;3.35;;
73779;SDS011;62093;37.614;15.072;2023-02-11T01:33:44;5.53;;;3.03;;
73779;SDS011;62093;37.614;15.072;2023-02-11T01:36:14;6.00;;;3.15;;
73779;SDS011;62093;37.614;15.072;2023-02-11T01:38:40;6.10;;;3.30;;
73779;SDS011;62093;37.614;15.072;2023-02-11T01:41:10;6.82;;;3.47;;
73779;SDS011;62093;37.614;15.072;2023-02-11T01:43:40;6.00;;;3.30;;
73779;SDS011;62093;37.614;15.072;2023-02-11T01:46:49;6.90;;;3.30;;
73779;SDS011;62093;37.614;15.072;2023-02-11T01:49:09;6.43;;;3.40;;
73779;SDS011;62093;37.614;15.072;2023-02-11T01:52:00;5.70;;;3.00;;
73779;SDS011;62093;37.614;15.072;2023-02-11T01:54:29;5.72;;;3.30;;
73779;SDS011;62093;37.614;15.072;2023-02-11T01:57:21;6.38;;;3.67;;
73779;SDS011;62093;37.614;15.072;2023-02-11T02:02:49;6.05;;;3.50;;
73779;SDS011;62093;37.614;15.072;2023-02-11T02:05:27;6.83;;;3.00;;
73779;SDS011;62093;37.614;15.072;2023-02-11T02:10:37;6.68;;;3.35;;
73779;SDS011;62093;37.614;15.072;2023-02-11T02:13:10;6.05;;;3.83;;
73779;SDS011;62093;37.614;15.072;2023-02-11T02:15:40;7.07;;;3.28;;
73779;SDS011;62093;37.614;15.072;2023-02-11T02:38:06;5.90;;;3.38;;
73779;SDS011;62093;37.614;15.072;2023-02-11T02:43:19;7.13;;;3.60;;
73779;SDS011;62093;37.614;15.072;2023-02-11T02:45:47;5.47;;;2.90;;
73779;SDS011;62093;37.614;15.072;2023-02-11T02:48:47;6.38;;;3.45;;
73779;SDS011;62093;37.614;15.072;2023-02-11T02:59:07;6.47;;;2.93;;
73779;SDS011;62093;37.614;15.072;2023-02-11T03:07:08;5.78;;;3.10;;
73779;SDS011;62093;37.614;15.072;2023-02-11T03:09:49;5.93;;;3.33;;
73779;SDS011;62093;37.614;15.072;2023-02-11T03:12:34;6.43;;;3.33;;
73779;SDS011;62093;37.614;15.072;2023-02-11T03:15:07;5.90;;;3.15;;
73779;SDS011;62093;37.614;15.072;2023-02-11T03:17:35;6.00;;;3.30;;
73779;SDS011;62093;37.614;15.072;2023-02-11T03:20:09;5.88;;;3.00;;
73779;SDS011;62093;37.614;15.072;2023-02-11T03:22:53;6.13;;;3.45;;
73779;SDS011;62093;37.614;15.072;2023-02-11T03:25:43;6.83;;;3.63;;
73779;SDS011;62093;37.614;15.072;2023-02-11T03:31:19;7.72;;;3.40;;
73779;SDS011;62093;37.614;15.072;2023-02-11T03:33:59;6.70;;;3.20;;
73779;SDS011;62093;37.614;15.072;2023-02-11T03:36:44;6.25;;;3.40;;
73779;SDS011;62093;37.614;15.072;2023-02-11T03:39:18;6.17;;;3.03;;
73779;SDS011;62093;37.614;15.072;2023-02-11T03:41:53;5.63;;;3.17;;
73779;SDS011;62093;37.614;15.072;2023-02-11T03:44:27;6.68;;;3.47;;
73779;SDS011;62093;37.614;15.072;2023-02-11T03:46:58;6.13;;;3.30;;
73779;SDS011;62093;37.614;15.072;2023-02-11T03:49:31;6.60;;;3.47;;
73779;SDS011;62093;37.614;15.072;2023-02-11T03:52:03;7.17;;;3.67;;
73779;SDS011;62093;37.614;15.072;2023-02-11T03:54:32;5.85;;;3.15;;
73779;SDS011;62093;37.614;15.072;2023-02-11T03:56:59;6.55;;;3.50;;
73779;SDS011;62093;37.614;15.072;2023-02-11T03:59:28;6.03;;;2.95;;
73779;SDS011;62093;37.614;15.072;2023-02-11T04:01:55;6.13;;;3.00;;
73779;SDS011;62093;37.614;15.072;2023-02-11T04:04:24;6.70;;;3.33;;
73779;SDS011;62093;37.614;15.072;2023-02-11T04:06:50;6.30;;;3.35;;
73779;SDS011;62093;37.614;15.072;2023-02-11T04:09:19;7.05;;;3.55;;
73779;SDS011;62093;37.614;15.072;2023-02-11T04:11:46;5.80;;;3.00;;
73779;SDS011;62093;37.614;15.072;2023-02-11T04:14:12;6.95;;;3.42;;
73779;SDS011;62093;37.614;15.072;2023-02-11T04:16:39;6.47;;;3.40;;
73779;SDS011;62093;37.614;15.072;2023-02-11T04:19:08;5.93;;;3.22;;
73779;SDS011;62093;37.614;15.072;2023-02-11T04:21:34;6.50;;;3.40;;
73779;SDS011;62093;37.614;15.072;2023-02-11T04:24:01;6.45;;;3.40;;
73779;SDS011;62093;37.614;15.072;2023-02-11T04:26:30;6.30;;;3.28;;
73779;SDS011;62093;37.614;15.072;2023-02-11T04:28:58;8.93;;;3.90;;
73779;SDS011;62093;37.614;15.072;2023-02-11T04:31:24;6.50;;;3.53;;
73779;SDS011;62093;37.614;15.072;2023-02-11T04:33:50;5.88;;;3.38;;
73779;SDS011;62093;37.614;15.072;2023-02-11T04:36:16;6.18;;;3.35;;
73779;SDS011;62093;37.614;15.072;2023-02-11T04:38:48;6.28;;;3.03;;
73779;SDS011;62093;37.614;15.072;2023-02-11T04:41:15;5.90;;;3.33;;
73779;SDS011;62093;37.614;15.072;2023-02-11T04:43:42;6.30;;;3.22;;
73779;SDS011;62093;37.614;15.072;2023-02-11T04:46:08;6.13;;;3.10;;
73779;SDS011;62093;37.614;15.072;2023-02-11T04:48:34;6.25;;;3.35;;
73779;SDS011;62093;37.614;15.072;2023-02-11T04:51:01;5.93;;;3.40;;
73779;SDS011;62093;37.614;15.072;2023-02-11T04:53:31;6.87;;;3.40;;
73779;SDS011;62093;37.614;15.072;2023-02-11T04:56:01;5.82;;;3.15;;
73779;SDS011;62093;37.614;15.072;2023-02-11T04:58:27;6.50;;;3.28;;
73779;SDS011;62093;37.614;15.072;2023-02-11T05:01:04;6.85;;;3.78;;
73779;SDS011;62093;37.614;15.072;2023-02-11T05:03:34;6.97;;;3.80;;
73779;SDS011;62093;37.614;15.072;2023-02-11T05:06:01;6.97;;;3.80;;
73779;SDS011;62093;37.614;15.072;2023-02-11T05:08:28;6.15;;;3.45;;
73779;SDS011;62093;37.614;15.072;2023-02-11T05:10:57;6.20;;;3.33;;
73779;SDS011;62093;37.614;15.072;2023-02-11T05:13:24;6.22;;;3.40;;
73779;SDS011;62093;37.614;15.072;2023-02-11T05:15:50;6.70;;;3.30;;
73779;SDS011;62093;37.614;15.072;2023-02-11T05:18:18;5.80;;;3.40;;
73779;SDS011;62093;37.614;15.072;2023-02-11T05:20:45;6.05;;;3.45;;
73779;SDS011;62093;37.614;15.072;2023-02-11T05:23:14;6.22;;;3.22;;
73779;SDS011;62093;37.614;15.072;2023-02-11T05:25:42;6.32;;;3.20;;
73779;SDS011;62093;37.614;15.072;2023-02-11T05:28:11;5.53;;;3.20;;
73779;SDS011;62093;37.614;15.072;2023-02-11T05:30:38;7.00;;;3.33;;
73779;SDS011;62093;37.614;15.072;2023-02-11T05:33:06;5.50;;;2.95;;
73779;SDS011;62093;37.614;15.072;2023-02-11T05:35:36;6.55;;;3.97;;
73779;SDS011;62093;37.614;15.072;2023-02-11T05:38:03;6.75;;;3.55;;
73779;SDS011;62093;37.614;15.072;2023-02-11T05:40:32;6.63;;;3.50;;
73779;SDS011;62093;37.614;15.072;2023-02-11T05:42:58;5.13;;;3.20;;
73779;SDS011;62093;37.614;15.072;2023-02-11T05:45:25;5.85;;;3.55;;
73779;SDS011;62093;37.614;15.072;2023-02-11T05:47:52;6.10;;;3.15;;
73779;SDS011;62093;37.614;15.072;2023-02-11T05:50:22;6.38;;;3.40;;
73779;SDS011;62093;37.614;15.072;2023-02-11T05:52:51;6.23;;;3.63;;
73779;SDS011;62093;37.614;15.072;2023-02-11T05:55:18;7.07;;;3.58;;
73779;SDS011;62093;37.614;15.072;2023-02-11T05:57:45;6.43;;;3.42;;
73779;SDS011;62093;37.614;15.072;2023-02-11T06:00:12;6.60;;;3.30;;
73779;SDS011;62093;37.614;15.072;2023-02-11T06:02:38;6.07;;;3.60;;
73779;SDS011;62093;37.614;15.072;2023-02-11T06:05:11;6.33;;;3.30;;
73779;SDS011;62093;37.614;15.072;2023-02-11T06:07:38;5.82;;;3.40;;
73779;SDS011;62093;37.614;15.072;2023-02-11T06:10:04;6.30;;;2.95;;
73779;SDS011;62093;37.614;15.072;2023-02-11T06:12:31;6.28;;;3.58;;
73779;SDS011;62093;37.614;15.072;2023-02-11T06:14:58;6.30;;;3.45;;
73779;SDS011;62093;37.614;15.072;2023-02-11T06:17:24;5.97;;;3.40;;
73779;SDS011;62093;37.614;15.072;2023-02-11T06:19:51;6.07;;;3.15;;
73779;SDS011;62093;37.614;15.072;2023-02-11T06:22:20;6.32;;;3.45;;
73779;SDS011;62093;37.614;15.072;2023-02-11T06:24:50;6.63;;;3.30;;
73779;SDS011;62093;37.614;15.072;2023-02-11T06:27:16;6.15;;;3.50;;
73779;SDS011;62093;37.614;15.072;2023-02-11T06:29:44;6.30;;;3.47;;
73779;SDS011;62093;37.614;15.072;2023-02-11T06:32:11;5.93;;;3.20;;
73779;SDS011;62093;37.614;15.072;2023-02-11T06:34:40;6.95;;;3.50;;
73779;SDS011;62093;37.614;15.072;2023-02-11T06:37:10;6.80;;;3.65;;
73779;SDS011;62093;37.614;15.072;2023-02-11T06:39:36;6.72;;;3.78;;
73779;SDS011;62093;37.614;15.072;2023-02-11T06:42:07;5.90;;;3.40;;
73779;SDS011;62093;37.614;15.072;2023-02-11T06:44:34;5.80;;;3.25;;
73779;SDS011;62093;37.614;15.072;2023-02-11T06:47:00;5.97;;;3.40;;
73779;SDS011;62093;37.614;15.072;2023-02-11T06:49:29;5.88;;;3.78;;
73779;SDS011;62093;37.614;15.072;2023-02-11T06:51:59;7.32;;;4.00;;
73779;SDS011;62093;37.614;15.072;2023-02-11T06:54:26;7.00;;;4.23;;
73779;SDS011;62093;37.614;15.072;2023-02-11T06:56:56;6.70;;;3.67;;
73779;SDS011;62093;37.614;15.072;2023-02-11T06:59:23;6.05;;;3.72;;
73779;SDS011;62093;37.614;15.072;2023-02-11T07:01:49;6.43;;;3.55;;
73779;SDS011;62093;37.614;15.072;2023-02-11T07:04:16;6.88;;;3.63;;
73779;SDS011;62093;37.614;15.072;2023-02-11T07:06:45;6.90;;;4.10;;
73779;SDS011;62093;37.614;15.072;2023-02-11T07:09:11;6.88;;;3.72;;
73779;SDS011;62093;37.614;15.072;2023-02-11T07:11:37;7.90;;;3.90;;
73779;SDS011;62093;37.614;15.072;2023-02-11T07:14:05;7.05;;;4.13;;
73779;SDS011;62093;37.614;15.072;2023-02-11T07:16:41;7.60;;;4.15;;
73779;SDS011;62093;37.614;15.072;2023-02-11T07:19:18;6.80;;;3.90;;
73779;SDS011;62093;37.614;15.072;2023-02-11T07:21:45;6.55;;;3.88;;
73779;SDS011;62093;37.614;15.072;2023-02-11T07:24:13;7.68;;;4.30;;
73779;SDS011;62093;37.614;15.072;2023-02-11T07:26:43;7.10;;;4.00;;
73779;SDS011;62093;37.614;15.072;2023-02-11T07:29:09;7.78;;;4.15;;
73779;SDS011;62093;37.614;15.072;2023-02-11T07:31:36;7.10;;;3.93;;
73779;SDS011;62093;37.614;15.072;2023-02-11T07:34:05;7.45;;;3.78;;
73779;SDS011;62093;37.614;15.072;2023-02-11T07:36:34;6.57;;;3.63;;
73779;SDS011;62093;37.614;15.072;2023-02-11T07:39:01;6.38;;;3.83;;
73779;SDS011;62093;37.614;15.072;2023-02-11T07:41:27;6.45;;;3.75;;
73779;SDS011;62093;37.614;15.072;2023-02-11T07:43:54;6.90;;;3.97;;
73779;SDS011;62093;37.614;15.072;2023-02-11T07:46:25;6.05;;;3.50;;
73779;SDS011;62093;37.614;15.072;2023-02-11T07:48:59;6.35;;;3.70;;
73779;SDS011;62093;37.614;15.072;2023-02-11T07:51:29;9.93;;;5.05;;
73779;SDS011;62093;37.614;15.072;2023-02-11T07:53:57;8.30;;;4.72;;
73779;SDS011;62093;37.614;15.072;2023-02-11T07:56:25;7.17;;;3.73;;
73779;SDS011;62093;37.614;15.072;2023-02-11T07:58:55;7.72;;;3.75;;
73779;SDS011;62093;37.614;15.072;2023-02-11T08:01:24;7.20;;;4.00;;
73779;SDS011;62093;37.614;15.072;2023-02-11T08:03:56;6.60;;;4.13;;
73779;SDS011;62093;37.614;15.072;2023-02-11T08:06:28;6.70;;;3.60;;
73779;SDS011;62093;37.614;15.072;2023-02-11T08:08:56;6.77;;;3.60;;
73779;SDS011;62093;37.614;15.072;2023-02-11T08:11:24;6.53;;;3.45;;
73779;SDS011;62093;37.614;15.072;2023-02-11T08:13:52;6.78;;;3.92;;
73779;SDS011;62093;37.614;15.072;2023-02-11T08:16:26;7.53;;;3.92;;
73779;SDS011;62093;37.614;15.072;2023-02-11T08:18:55;6.28;;;3.83;;
73779;SDS011;62093;37.614;15.072;2023-02-11T08:21:23;6.90;;;3.40;;
73779;SDS011;62093;37.614;15.072;2023-02-11T08:23:52;6.68;;;4.07;;
73779;SDS011;62093;37.614;15.072;2023-02-11T08:26:23;6.22;;;3.88;;
73779;SDS011;62093;37.614;15.072;2023-02-11T08:28:54;6.43;;;3.60;;
73779;SDS011;62093;37.614;15.072;2023-02-11T08:31:26;6.43;;;3.72;;
73779;SDS011;62093;37.614;15.072;2023-02-11T08:33:54;6.47;;;3.90;;
73779;SDS011;62093;37.614;15.072;2023-02-11T08:36:24;6.45;;;3.58;;
73779;SDS011;62093;37.614;15.072;2023-02-11T08:38:53;6.80;;;3.75;;
73779;SDS011;62093;37.614;15.072;2023-02-11T08:41:20;7.15;;;3.20;;
73779;SDS011;62093;37.614;15.072;2023-02-11T08:43:46;6.88;;;3.75;;
73779;SDS011;62093;37.614;15.072;2023-02-11T08:46:21;6.13;;;3.30;;
73779;SDS011;62093;37.614;15.072;2023-02-11T08:48:48;6.85;;;3.90;;
73779;SDS011;62093;37.614;15.072;2023-02-11T08:51:16;6.40;;;3.92;;
73779;SDS011;62093;37.614;15.072;2023-02-11T08:53:44;6.18;;;3.85;;
73779;SDS011;62093;37.614;15.072;2023-02-11T08:56:11;6.28;;;3.22;;
73779;SDS011;62093;37.614;15.072;2023-02-11T08:58:46;6.53;;;3.60;;
73779;SDS011;62093;37.614;15.072;2023-02-11T09:01:13;6.30;;;3.53;;
73779;SDS011;62093;37.614;15.072;2023-02-11T09:03:45;6.82;;;3.67;;
73779;SDS011;62093;37.614;15.072;2023-02-11T09:06:24;6.97;;;3.75;;
73779;SDS011;62093;37.614;15.072;2023-02-11T09:08:56;8.48;;;3.80;;
73779;SDS011;62093;37.614;15.072;2023-02-11T09:11:27;7.10;;;4.03;;
73779;SDS011;62093;37.614;15.072;2023-02-11T09:13:58;7.05;;;3.83;;
73779;SDS011;62093;37.614;15.072;2023-02-11T09:16:26;6.30;;;3.80;;
73779;SDS011;62093;37.614;15.072;2023-02-11T09:18:57;6.72;;;3.65;;
73779;SDS011;62093;37.614;15.072;2023-02-11T09:21:26;6.20;;;3.60;;
73779;SDS011;62093;37.614;15.072;2023-02-11T09:23:55;5.97;;;3.50;;
73779;SDS011;62093;37.614;15.072;2023-02-11T09:26:32;6.60;;;3.70;;
73779;SDS011;62093;37.614;15.072;2023-02-11T09:29:06;6.30;;;3.65;;
73779;SDS011;62093;37.614;15.072;2023-02-11T09:31:36;7.72;;;3.75;;
73779;SDS011;62093;37.614;15.072;2023-02-11T09:34:03;8.60;;;3.55;;
73779;SDS011;62093;37.614;15.072;2023-02-11T09:36:32;6.30;;;3.53;;
73779;SDS011;62093;37.614;15.072;2023-02-11T09:39:02;6.28;;;3.40;;
73779;SDS011;62093;37.614;15.072;2023-02-11T09:41:40;6.95;;;3.65;;
73779;SDS011;62093;37.614;15.072;2023-02-11T09:44:21;6.72;;;3.90;;
73779;SDS011;62093;37.614;15.072;2023-02-11T09:47:00;6.40;;;3.70;;
73779;SDS011;62093;37.614;15.072;2023-02-11T09:49:40;6.47;;;3.80;;
73779;SDS011;62093;37.614;15.072;2023-02-11T09:52:31;7.95;;;3.80;;
73779;SDS011;62093;37.614;15.072;2023-02-11T09:58:19;6.82;;;3.50;;
73779;SDS011;62093;37.614;15.072;2023-02-11T10:08:37;7.47;;;3.53;;
73779;SDS011;62093;37.614;15.072;2023-02-11T10:14:26;6.32;;;3.58;;
73779;SDS011;62093;37.614;15.072;2023-02-11T10:17:35;7.00;;;3.67;;
73779;SDS011;62093;37.614;15.072;2023-02-11T10:22:58;6.07;;;3.50;;
73779;SDS011;62093;37.614;15.072;2023-02-11T10:28:11;6.60;;;3.67;;
73779;SDS011;62093;37.614;15.072;2023-02-11T10:33:30;5.90;;;3.58;;
73779;SDS011;62093;37.614;15.072;2023-02-11T10:36:26;7.55;;;3.88;;
73779;SDS011;62093;37.614;15.072;2023-02-11T10:38:56;7.18;;;4.28;;
73779;SDS011;62093;37.614;15.072;2023-02-11T10:41:31;7.00;;;3.60;;
73779;SDS011;62093;37.614;15.072;2023-02-11T10:44:01;5.80;;;3.27;;
73779;SDS011;62093;37.614;15.072;2023-02-11T10:46:35;5.75;;;3.40;;
73779;SDS011;62093;37.614;15.072;2023-02-11T10:49:04;6.53;;;3.70;;
73779;SDS011;62093;37.614;15.072;2023-02-11T10:51:31;6.10;;;3.55;;
73779;SDS011;62093;37.614;15.072;2023-02-11T10:56:37;6.43;;;3.63;;
73779;SDS011;62093;37.614;15.072;2023-02-11T11:02:04;6.60;;;3.97;;
73779;SDS011;62093;37.614;15.072;2023-02-11T11:04:48;5.95;;;3.33;;
73779;SDS011;62093;37.614;15.072;2023-02-11T11:12:45;6.03;;;3.60;;
73779;SDS011;62093;37.614;15.072;2023-02-11T11:15:17;6.75;;;3.60;;
73779;SDS011;62093;37.614;15.072;2023-02-11T11:17:49;6.45;;;3.90;;
73779;SDS011;62093;37.614;15.072;2023-02-11T11:20:33;7.32;;;3.95;;
73779;SDS011;62093;37.614;15.072;2023-02-11T11:23:17;5.57;;;3.40;;
73779;SDS011;62093;37.614;15.072;2023-02-11T11:28:28;6.07;;;3.67;;
73779;SDS011;62093;37.614;15.072;2023-02-11T11:30:57;7.03;;;3.67;;
73779;SDS011;62093;37.614;15.072;2023-02-11T11:33:26;6.68;;;3.75;;
73779;SDS011;62093;37.614;15.072;2023-02-11T11:36:03;6.07;;;3.50;;
73779;SDS011;62093;37.614;15.072;2023-02-11T11:38:34;6.97;;;3.50;;
73779;SDS011;62093;37.614;15.072;2023-02-11T11:44:44;6.68;;;3.38;;
73779;SDS011;62093;37.614;15.072;2023-02-11T11:46:50;5.70;;;3.25;;
73779;SDS011;62093;37.614;15.072;2023-02-11T11:52:47;7.00;;;3.80;;
73779;SDS011;62093;37.614;15.072;2023-02-11T11:55:35;7.15;;;3.70;;
73779;SDS011;62093;37.614;15.072;2023-02-11T11:58:17;6.68;;;3.92;;
73779;SDS011;62093;37.614;15.072;2023-02-11T12:11:58;6.03;;;3.45;;
73779;SDS011;62093;37.614;15.072;2023-02-11T12:25:38;5.97;;;3.42;;
73779;SDS011;62093;37.614;15.072;2023-02-11T12:31:10;6.43;;;3.33;;
73779;SDS011;62093;37.614;15.072;2023-02-11T12:36:35;5.25;;;3.10;;
73779;SDS011;62093;37.614;15.072;2023-02-11T12:39:34;6.65;;;3.35;;
73779;SDS011;62093;37.614;15.072;2023-02-11T12:45:17;5.43;;;3.43;;
73779;SDS011;62093;37.614;15.072;2023-02-11T12:50:55;6.03;;;3.22;;
73779;SDS011;62093;37.614;15.072;2023-02-11T12:59:16;5.33;;;3.00;;
73779;SDS011;62093;37.614;15.072;2023-02-11T13:01:54;6.63;;;3.35;;
73779;SDS011;62093;37.614;15.072;2023-02-11T13:04:56;7.97;;;4.05;;
73779;SDS011;62093;37.614;15.072;2023-02-11T13:07:25;6.93;;;3.58;;
73779;SDS011;62093;37.614;15.072;2023-02-11T13:09:58;7.45;;;3.72;;
73779;SDS011;62093;37.614;15.072;2023-02-11T13:12:30;6.73;;;3.50;;
73779;SDS011;62093;37.614;15.072;2023-02-11T13:15:16;7.03;;;3.97;;
73779;SDS011;62093;37.614;15.072;2023-02-11T13:17:52;6.90;;;3.45;;
73779;SDS011;62093;37.614;15.072;2023-02-11T13:20:34;6.80;;;3.67;;
73779;SDS011;62093;37.614;15.072;2023-02-11T13:23:13;6.63;;;3.72;;
73779;SDS011;62093;37.614;15.072;2023-02-11T13:31:52;7.18;;;3.53;;
73779;SDS011;62093;37.614;15.072;2023-02-11T13:34:53;7.80;;;3.83;;
73779;SDS011;62093;37.614;15.072;2023-02-11T13:48:14;8.80;;;4.25;;
73779;SDS011;62093;37.614;15.072;2023-02-11T13:50:58;7.22;;;3.63;;
73779;SDS011;62093;37.614;15.072;2023-02-11T13:53:29;7.97;;;4.07;;
73779;SDS011;62093;37.614;15.072;2023-02-11T13:59:05;7.22;;;3.83;;
73779;SDS011;62093;37.614;15.072;2023-02-11T14:14:22;8.10;;;3.90;;
73779;SDS011;62093;37.614;15.072;2023-02-11T14:19:34;7.35;;;4.45;;
73779;SDS011;62093;37.614;15.072;2023-02-11T14:22:12;9.20;;;4.70;;
73779;SDS011;62093;37.614;15.072;2023-02-11T14:25:02;11.68;;;4.80;;
73779;SDS011;62093;37.614;15.072;2023-02-11T14:30:14;9.40;;;4.38;;
73779;SDS011;62093;37.614;15.072;2023-02-11T14:41:40;8.30;;;4.00;;
73779;SDS011;62093;37.614;15.072;2023-02-11T14:44:15;8.55;;;4.40;;
73779;SDS011;62093;37.614;15.072;2023-02-11T14:46:45;8.80;;;4.20;;
73779;SDS011;62093;37.614;15.072;2023-02-11T14:49:30;9.03;;;4.33;;
73779;SDS011;62093;37.614;15.072;2023-02-11T14:52:12;10.20;;;4.88;;
73779;SDS011;62093;37.614;15.072;2023-02-11T14:54:52;8.40;;;5.00;;
73779;SDS011;62093;37.614;15.072;2023-02-11T14:57:41;10.43;;;4.28;;
73779;SDS011;62093;37.614;15.072;2023-02-11T15:00:15;8.18;;;4.30;;
73779;SDS011;62093;37.614;15.072;2023-02-11T15:02:43;10.73;;;3.97;;
73779;SDS011;62093;37.614;15.072;2023-02-11T15:05:23;7.47;;;4.05;;
73779;SDS011;62093;37.614;15.072;2023-02-11T15:07:57;7.40;;;4.03;;
73779;SDS011;62093;37.614;15.072;2023-02-11T15:13:05;8.75;;;4.72;;
73779;SDS011;62093;37.614;15.072;2023-02-11T15:15:33;10.63;;;4.73;;
73779;SDS011;62093;37.614;15.072;2023-02-11T15:18:02;10.05;;;4.22;;
73779;SDS011;62093;37.614;15.072;2023-02-11T15:20:39;9.52;;;3.80;;
73779;SDS011;62093;37.614;15.072;2023-02-11T15:23:08;8.50;;;4.50;;
73779;SDS011;62093;37.614;15.072;2023-02-11T15:25:44;12.88;;;4.80;;
73779;SDS011;62093;37.614;15.072;2023-02-11T15:30:58;9.85;;;4.32;;
73779;SDS011;62093;37.614;15.072;2023-02-11T15:33:36;12.25;;;5.18;;
73779;SDS011;62093;37.614;15.072;2023-02-11T15:36:03;9.50;;;4.40;;
73779;SDS011;62093;37.614;15.072;2023-02-11T15:38:30;11.20;;;4.22;;
73779;SDS011;62093;37.614;15.072;2023-02-11T15:40:57;8.23;;;4.40;;
73779;SDS011;62093;37.614;15.072;2023-02-11T15:46:37;9.20;;;5.05;;
73779;SDS011;62093;37.614;15.072;2023-02-11T15:49:14;11.75;;;5.00;;
73779;SDS011;62093;37.614;15.072;2023-02-11T15:51:50;8.90;;;4.80;;
73779;SDS011;62093;37.614;15.072;2023-02-11T15:54:20;9.47;;;4.60;;
73779;SDS011;62093;37.614;15.072;2023-02-11T15:56:58;7.65;;;4.15;;
73779;SDS011;62093;37.614;15.072;2023-02-11T15:59:38;8.70;;;4.22;;
73779;SDS011;62093;37.614;15.072;2023-02-11T16:07:56;10.70;;;4.90;;
73779;SDS011;62093;37.614;15.072;2023-02-11T16:10:28;13.68;;;4.90;;
73779;SDS011;62093;37.614;15.072;2023-02-11T16:13:00;9.23;;;4.80;;
73779;SDS011;62093;37.614;15.072;2023-02-11T16:15:48;9.40;;;4.60;;
73779;SDS011;62093;37.614;15.072;2023-02-11T16:22:38;9.38;;;4.90;;
73779;SDS011;62093;37.614;15.072;2023-02-11T16:25:04;9.93;;;5.38;;
73779;SDS011;62093;37.614;15.072;2023-02-11T16:27:50;9.90;;;5.22;;
73779;SDS011;62093;37.614;15.072;2023-02-11T16:32:47;9.70;;;5.27;;
73779;SDS011;62093;37.614;15.072;2023-02-11T16:35:13;9.85;;;5.00;;
73779;SDS011;62093;37.614;15.072;2023-02-11T16:37:39;9.05;;;4.43;;
73779;SDS011;62093;37.614;15.072;2023-02-11T16:40:06;9.73;;;4.70;;
73779;SDS011;62093;37.614;15.072;2023-02-11T16:42:39;7.97;;;4.63;;
73779;SDS011;62093;37.614;15.072;2023-02-11T16:45:05;9.50;;;5.23;;
73779;SDS011;62093;37.614;15.072;2023-02-11T16:47:31;10.45;;;4.80;;
73779;SDS011;62093;37.614;15.072;2023-02-11T16:49:59;9.57;;;4.72;;
73779;SDS011;62093;37.614;15.072;2023-02-11T16:52:31;8.75;;;5.28;;
73779;SDS011;62093;37.614;15.072;2023-02-11T16:54:58;9.10;;;5.27;;
73779;SDS011;62093;37.614;15.072;2023-02-11T16:57:29;10.95;;;5.57;;
73779;SDS011;62093;37.614;15.072;2023-02-11T17:00:02;10.85;;;5.95;;
73779;SDS011;62093;37.614;15.072;2023-02-11T17:02:32;9.77;;;5.75;;
73779;SDS011;62093;37.614;15.072;2023-02-11T17:05:00;12.13;;;6.30;;
73779;SDS011;62093;37.614;15.072;2023-02-11T17:07:29;11.47;;;6.77;;
73779;SDS011;62093;37.614;15.072;2023-02-11T17:09:56;12.52;;;8.02;;
73779;SDS011;62093;37.614;15.072;2023-02-11T17:12:22;16.20;;;9.35;;
73779;SDS011;62093;37.614;15.072;2023-02-11T17:14:52;12.95;;;8.88;;
73779;SDS011;62093;37.614;15.072;2023-02-11T17:17:21;13.00;;;8.48;;
73779;SDS011;62093;37.614;15.072;2023-02-11T17:19:48;14.17;;;9.73;;
73779;SDS011;62093;37.614;15.072;2023-02-11T17:22:17;14.10;;;9.20;;
73779;SDS011;62093;37.614;15.072;2023-02-11T17:24:43;11.80;;;8.50;;
73779;SDS011;62093;37.614;15.072;2023-02-11T17:27:10;12.63;;;8.80;;
73779;SDS011;62093;37.614;15.072;2023-02-11T17:29:36;13.13;;;9.27;;
73779;SDS011;62093;37.614;15.072;2023-02-11T17:32:05;15.13;;;10.30;;
73779;SDS011;62093;37.614;15.072;2023-02-11T17:34:39;14.65;;;10.95;;
73779;SDS011;62093;37.614;15.072;2023-02-11T17:37:06;16.88;;;10.63;;
73779;SDS011;62093;37.614;15.072;2023-02-11T17:39:34;15.15;;;11.43;;
73779;SDS011;62093;37.614;15.072;2023-02-11T17:42:04;15.60;;;11.77;;
73779;SDS011;62093;37.614;15.072;2023-02-11T17:44:31;14.85;;;10.48;;
73779;SDS011;62093;37.614;15.072;2023-02-11T17:46:58;16.70;;;11.55;;
73779;SDS011;62093;37.614;15.072;2023-02-11T17:49:24;16.38;;;10.68;;
73779;SDS011;62093;37.614;15.072;2023-02-11T17:51:52;14.45;;;11.45;;
73779;SDS011;62093;37.614;15.072;2023-02-11T17:54:18;17.27;;;12.87;;
73779;SDS011;62093;37.614;15.072;2023-02-11T17:56:45;16.02;;;12.10;;
73779;SDS011;62093;37.614;15.072;2023-02-11T17:59:14;15.70;;;12.15;;
73779;SDS011;62093;37.614;15.072;2023-02-11T18:01:42;17.13;;;12.47;;
73779;SDS011;62093;37.614;15.072;2023-02-11T18:04:13;17.80;;;11.37;;
73779;SDS011;62093;37.614;15.072;2023-02-11T18:06:43;14.95;;;11.43;;
73779;SDS011;62093;37.614;15.072;2023-02-11T18:09:10;15.60;;;11.52;;
73779;SDS011;62093;37.614;15.072;2023-02-11T18:11:37;17.63;;;11.18;;
73779;SDS011;62093;37.614;15.072;2023-02-11T18:14:04;15.38;;;12.32;;